sensor_id;sensor_type;location;lat;lon;timestamp;pressure;altitude;pressure_sealevel;temperature;humidity
56600;BME280;51832;48.152;11.530;2023-08-07T00:00:12;95170.91;;;13.16;88.20
56600;BME280;51832;48.152;11.530;2023-08-07T00:05:13;95179.28;;;13.13;88.89
56600;BME280;51832;48.152;11.530;2023-08-07T00:10:13;95209.72;;;12.99;90.03
56600;BME280;51832;48.152;11.530;2023-08-07T00:15:14;95196.97;;;13.12;90.36
56600;BME280;51832;48.152;11.530;2023-08-07T00:20:15;95208.53;;;12.90;90.60
56600;BME280;51832;48.152;11.530;2023-08-07T00:25:15;95236.16;;;12.82;91.44
56600;BME280;51832;48.152;11.530;2023-08-07T00:30:15;95184.03;;;13.11;90.81
56600;BME280;51832;48.152;11.530;2023-08-07T00:35:16;95227.19;;;12.83;92.46
56600;BME280;51832;48.152;11.530;2023-08-07T00:40:17;95208.06;;;12.76;93.33
56600;BME280;51832;48.152;11.530;2023-08-07T00:45:17;95201.38;;;12.68;94.73
56600;BME280;51832;48.152;11.530;2023-08-07T00:50:18;95216.00;;;12.42;97.40
56600;BME280;51832;48.152;11.530;2023-08-07T00:55:18;95215.56;;;12.34;99.14
56600;BME280;51832;48.152;11.530;2023-08-07T01:00:19;95217.53;;;12.10;100.00
56600;BME280;51832;48.152;11.530;2023-08-07T01:05:20;95192.75;;;12.11;100.00
56600;BME280;51832;48.152;11.530;2023-08-07T01:15:35;95199.88;;;12.10;100.00
56600;BME280;51832;48.152;11.530;2023-08-07T01:20:37;95187.25;;;12.13;100.00
56600;BME280;51832;48.152;11.530;2023-08-07T01:25:38;95202.84;;;11.86;100.00
56600;BME280;51832;48.152;11.530;2023-08-07T01:30:43;95241.19;;;11.93;100.00
56600;BME280;51832;48.152;11.530;2023-08-07T01:35:54;95217.53;;;11.82;100.00
56600;BME280;51832;48.152;11.530;2023-08-07T01:40:56;95217.00;;;11.56;100.00
56600;BME280;51832;48.152;11.530;2023-08-07T01:45:57;95203.78;;;11.80;100.00
56600;BME280;51832;48.152;11.530;2023-08-07T01:50:58;95224.28;;;11.66;100.00
56600;BME280;51832;48.152;11.530;2023-08-07T01:55:59;95226.63;;;11.51;100.00
56600;BME280;51832;48.152;11.530;2023-08-07T02:00:59;95226.59;;;11.62;100.00
56600;BME280;51832;48.152;11.530;2023-08-07T02:05:59;95223.28;;;11.55;100.00
56600;BME280;51832;48.152;11.530;2023-08-07T02:11:02;95232.84;;;11.45;100.00
56600;BME280;51832;48.152;11.530;2023-08-07T02:16:03;95224.44;;;11.59;100.00
56600;BME280;51832;48.152;11.530;2023-08-07T02:21:03;95234.72;;;11.72;100.00
56600;BME280;51832;48.152;11.530;2023-08-07T02:26:03;95231.00;;;11.45;100.00
56600;BME280;51832;48.152;11.530;2023-08-07T02:31:04;95235.19;;;11.69;100.00
56600;BME280;51832;48.152;11.530;2023-08-07T02:36:04;95236.22;;;11.68;100.00
56600;BME280;51832;48.152;11.530;2023-08-07T02:41:05;95248.81;;;11.78;100.00
56600;BME280;51832;48.152;11.530;2023-08-07T02:46:05;95254.31;;;11.88;100.00
56600;BME280;51832;48.152;11.530;2023-08-07T02:51:06;95256.84;;;11.71;100.00
56600;BME280;51832;48.152;11.530;2023-08-07T02:56:06;95266.44;;;11.89;100.00
56600;BME280;51832;48.152;11.530;2023-08-07T03:01:07;95252.38;;;11.84;100.00
56600;BME280;51832;48.152;11.530;2023-08-07T03:06:08;95251.97;;;11.92;100.00
56600;BME280;51832;48.152;11.530;2023-08-07T03:11:08;95262.78;;;11.67;100.00
56600;BME280;51832;48.152;11.530;2023-08-07T03:16:09;95249.03;;;11.88;100.00
56600;BME280;51832;48.152;11.530;2023-08-07T03:21:09;95262.09;;;11.83;100.00
56600;BME280;51832;48.152;11.530;2023-08-07T03:26:12;95265.41;;;11.90;100.00
56600;BME280;51832;48.152;11.530;2023-08-07T03:31:12;95270.66;;;11.90;100.00
56600;BME280;51832;48.152;11.530;2023-08-07T03:36:13;95264.94;;;12.22;98.81
56600;BME280;51832;48.152;11.530;2023-08-07T03:41:13;95294.25;;;12.08;99.64
56600;BME280;51832;48.152;11.530;2023-08-07T03:46:13;95293.31;;;12.03;99.42
56600;BME280;51832;48.152;11.530;2023-08-07T03:51:14;95282.16;;;12.24;97.53
56600;BME280;51832;48.152;11.530;2023-08-07T03:56:17;95288.31;;;12.30;97.29
56600;BME280;51832;48.152;11.530;2023-08-07T04:01:17;95284.09;;;12.17;97.31
56600;BME280;51832;48.152;11.530;2023-08-07T04:06:18;95285.94;;;12.17;97.18
56600;BME280;51832;48.152;11.530;2023-08-07T04:11:18;95276.25;;;12.34;96.39
56600;BME280;51832;48.152;11.530;2023-08-07T04:16:19;95308.34;;;12.14;96.34
56600;BME280;51832;48.152;11.530;2023-08-07T04:21:19;95291.78;;;12.19;95.96
56600;BME280;51832;48.152;11.530;2023-08-07T04:26:20;95286.63;;;12.24;95.58
56600;BME280;51832;48.152;11.530;2023-08-07T04:31:20;95324.69;;;12.28;94.15
56600;BME280;51832;48.152;11.530;2023-08-07T04:36:21;95302.56;;;12.29;93.56
56600;BME280;51832;48.152;11.530;2023-08-07T04:41:21;95328.31;;;12.38;92.77
56600;BME280;51832;48.152;11.530;2023-08-07T04:46:22;95354.03;;;12.31;93.04
56600;BME280;51832;48.152;11.530;2023-08-07T04:51:22;95319.78;;;12.48;93.07
56600;BME280;51832;48.152;11.530;2023-08-07T04:56:23;95311.78;;;12.43;92.30
56600;BME280;51832;48.152;11.530;2023-08-07T05:01:23;95347.06;;;12.25;92.05
56600;BME280;51832;48.152;11.530;2023-08-07T05:06:24;95365.22;;;12.10;91.79
56600;BME280;51832;48.152;11.530;2023-08-07T05:11:24;95344.19;;;12.27;91.90
56600;BME280;51832;48.152;11.530;2023-08-07T05:16:25;95352.09;;;12.27;90.98
56600;BME280;51832;48.152;11.530;2023-08-07T05:21:25;95339.94;;;12.26;90.38
56600;BME280;51832;48.152;11.530;2023-08-07T05:26:26;95338.00;;;12.50;90.04
56600;BME280;51832;48.152;11.530;2023-08-07T05:31:26;95346.09;;;12.43;89.23
56600;BME280;51832;48.152;11.530;2023-08-07T05:36:26;95330.31;;;12.20;89.02
56600;BME280;51832;48.152;11.530;2023-08-07T05:41:27;95346.78;;;12.38;89.33
56600;BME280;51832;48.152;11.530;2023-08-07T05:46:27;95387.50;;;12.42;89.23
56600;BME280;51832;48.152;11.530;2023-08-07T05:51:28;95395.66;;;12.41;88.53
56600;BME280;51832;48.152;11.530;2023-08-07T05:56:28;95373.50;;;12.42;89.16
56600;BME280;51832;48.152;11.530;2023-08-07T06:01:29;95421.34;;;12.34;88.55
56600;BME280;51832;48.152;11.530;2023-08-07T06:06:32;95391.41;;;12.40;88.25
56600;BME280;51832;48.152;11.530;2023-08-07T06:11:35;95390.75;;;12.61;87.93
56600;BME280;51832;48.152;11.530;2023-08-07T06:16:35;95429.72;;;12.42;87.81
56600;BME280;51832;48.152;11.530;2023-08-07T06:21:36;95383.38;;;12.35;87.71
56600;BME280;51832;48.152;11.530;2023-08-07T06:26:36;95401.00;;;12.46;87.29
56600;BME280;51832;48.152;11.530;2023-08-07T06:31:36;95398.22;;;12.64;87.23
56600;BME280;51832;48.152;11.530;2023-08-07T06:36:37;95389.81;;;12.39;87.09
56600;BME280;51832;48.152;11.530;2023-08-07T06:41:37;95381.47;;;12.59;86.23
56600;BME280;51832;48.152;11.530;2023-08-07T06:46:38;95400.94;;;12.69;85.88
56600;BME280;51832;48.152;11.530;2023-08-07T06:51:38;95427.88;;;12.83;85.51
56600;BME280;51832;48.152;11.530;2023-08-07T06:56:39;95401.41;;;12.95;83.83
56600;BME280;51832;48.152;11.530;2023-08-07T07:01:42;95423.97;;;13.02;82.62
56600;BME280;51832;48.152;11.530;2023-08-07T07:06:42;95438.53;;;13.16;82.02
56600;BME280;51832;48.152;11.530;2023-08-07T07:11:43;95408.03;;;13.42;81.45
56600;BME280;51832;48.152;11.530;2023-08-07T07:16:44;95423.75;;;13.49;80.79
56600;BME280;51832;48.152;11.530;2023-08-07T07:21:44;95437.94;;;13.60;79.55
56600;BME280;51832;48.152;11.530;2023-08-07T07:26:44;95423.03;;;13.70;78.60
56600;BME280;51832;48.152;11.530;2023-08-07T07:31:45;95438.44;;;14.12;77.88
56600;BME280;51832;48.152;11.530;2023-08-07T07:36:45;95502.38;;;13.87;77.46
56600;BME280;51832;48.152;11.530;2023-08-07T07:41:46;95481.25;;;14.09;76.75
56600;BME280;51832;48.152;11.530;2023-08-07T07:46:46;95467.50;;;14.07;77.70
56600;BME280;51832;48.152;11.530;2023-08-07T07:51:46;95453.06;;;13.98;77.24
56600;BME280;51832;48.152;11.530;2023-08-07T07:56:47;95473.59;;;13.91;77.59
56600;BME280;51832;48.152;11.530;2023-08-07T08:01:48;95457.72;;;13.91;77.13
56600;BME280;51832;48.152;11.530;2023-08-07T08:06:48;95474.75;;;14.33;77.27
56600;BME280;51832;48.152;11.530;2023-08-07T08:11:48;95486.38;;;14.32;77.63
56600;BME280;51832;48.152;11.530;2023-08-07T08:16:49;95501.00;;;13.84;77.62
56600;BME280;51832;48.152;11.530;2023-08-07T08:21:50;95498.50;;;13.95;77.77
56600;BME280;51832;48.152;11.530;2023-08-07T08:26:50;95483.84;;;13.87;77.67
56600;BME280;51832;48.152;11.530;2023-08-07T08:31:51;95506.94;;;13.92;77.90
56600;BME280;51832;48.152;11.530;2023-08-07T08:36:53;95509.16;;;14.16;76.17
56600;BME280;51832;48.152;11.530;2023-08-07T08:41:53;95500.50;;;14.21;76.92
56600;BME280;51832;48.152;11.530;2023-08-07T08:46:54;95503.03;;;14.49;76.26
56600;BME280;51832;48.152;11.530;2023-08-07T08:51:59;95513.13;;;14.36;75.90
56600;BME280;51832;48.152;11.530;2023-08-07T08:57:00;95514.44;;;14.33;75.05
56600;BME280;51832;48.152;11.530;2023-08-07T09:02:00;95544.75;;;14.59;74.71
56600;BME280;51832;48.152;11.530;2023-08-07T09:07:01;95517.56;;;14.47;74.90
56600;BME280;51832;48.152;11.530;2023-08-07T09:12:02;95527.75;;;14.55;74.00
56600;BME280;51832;48.152;11.530;2023-08-07T09:17:04;95525.53;;;14.90;74.21
56600;BME280;51832;48.152;11.530;2023-08-07T09:22:05;95521.38;;;14.73;74.76
56600;BME280;51832;48.152;11.530;2023-08-07T09:27:08;95529.00;;;14.69;75.42
56600;BME280;51832;48.152;11.530;2023-08-07T09:32:12;95528.66;;;14.66;74.59
56600;BME280;51832;48.152;11.530;2023-08-07T09:37:13;95538.97;;;14.84;73.91
56600;BME280;51832;48.152;11.530;2023-08-07T09:42:14;95570.78;;;15.06;73.32
56600;BME280;51832;48.152;11.530;2023-08-07T09:47:17;95537.97;;;14.90;73.98
56600;BME280;51832;48.152;11.530;2023-08-07T09:52:18;95525.72;;;15.27;73.31
56600;BME280;51832;48.152;11.530;2023-08-07T09:57:19;95545.16;;;15.60;73.02
56600;BME280;51832;48.152;11.530;2023-08-07T10:02:20;95535.47;;;15.49;73.22
56600;BME280;51832;48.152;11.530;2023-08-07T10:07:21;95541.34;;;15.51;72.55
56600;BME280;51832;48.152;11.530;2023-08-07T10:12:22;95503.22;;;15.84;71.74
56600;BME280;51832;48.152;11.530;2023-08-07T10:17:23;95525.88;;;15.96;70.51
56600;BME280;51832;48.152;11.530;2023-08-07T10:22:25;95498.81;;;16.37;68.92
56600;BME280;51832;48.152;11.530;2023-08-07T10:27:27;95526.63;;;16.29;68.47
56600;BME280;51832;48.152;11.530;2023-08-07T10:32:30;95529.44;;;16.54;68.16
56600;BME280;51832;48.152;11.530;2023-08-07T10:37:43;95511.00;;;16.75;67.39
56600;BME280;51832;48.152;11.530;2023-08-07T10:42:57;95513.41;;;16.34;67.66
56600;BME280;51832;48.152;11.530;2023-08-07T10:48:03;95494.28;;;16.79;66.96
56600;BME280;51832;48.152;11.530;2023-08-07T10:53:05;95484.47;;;16.85;67.07
56600;BME280;51832;48.152;11.530;2023-08-07T10:58:21;95495.16;;;17.00;65.10
56600;BME280;51832;48.152;11.530;2023-08-07T11:03:28;95482.94;;;17.09;65.46
56600;BME280;51832;48.152;11.530;2023-08-07T11:08:29;95496.28;;;17.24;63.67
56600;BME280;51832;48.152;11.530;2023-08-07T11:13:30;95493.91;;;17.18;62.12
56600;BME280;51832;48.152;11.530;2023-08-07T11:18:30;95470.03;;;17.48;61.53
56600;BME280;51832;48.152;11.530;2023-08-07T11:23:31;95486.78;;;17.49;61.57
56600;BME280;51832;48.152;11.530;2023-08-07T11:28:32;95489.84;;;17.00;63.03
56600;BME280;51832;48.152;11.530;2023-08-07T11:33:33;95529.16;;;16.93;63.19
56600;BME280;51832;48.152;11.530;2023-08-07T11:38:36;95504.50;;;17.13;64.77
56600;BME280;51832;48.152;11.530;2023-08-07T11:43:37;95484.06;;;17.23;63.06
56600;BME280;51832;48.152;11.530;2023-08-07T11:48:40;95494.69;;;17.23;64.74
56600;BME280;51832;48.152;11.530;2023-08-07T11:53:41;95514.59;;;17.05;61.97
56600;BME280;51832;48.152;11.530;2023-08-07T11:58:43;95500.56;;;17.20;61.75
56600;BME280;51832;48.152;11.530;2023-08-07T12:03:52;95509.19;;;17.73;61.33
56600;BME280;51832;48.152;11.530;2023-08-07T12:08:55;95515.31;;;17.84;60.18
56600;BME280;51832;48.152;11.530;2023-08-07T12:14:00;95515.31;;;17.79;58.89
56600;BME280;51832;48.152;11.530;2023-08-07T12:19:03;95535.81;;;17.93;58.21
56600;BME280;51832;48.152;11.530;2023-08-07T12:24:06;95514.78;;;18.27;58.03
56600;BME280;51832;48.152;11.530;2023-08-07T12:29:07;95511.03;;;18.38;57.13
56600;BME280;51832;48.152;11.530;2023-08-07T12:34:07;95529.44;;;18.09;56.04
56600;BME280;51832;48.152;11.530;2023-08-07T12:39:09;95524.66;;;18.01;55.78
56600;BME280;51832;48.152;11.530;2023-08-07T12:44:09;95536.06;;;17.82;55.99
56600;BME280;51832;48.152;11.530;2023-08-07T12:49:10;95524.59;;;17.66;58.01
56600;BME280;51832;48.152;11.530;2023-08-07T12:54:10;95559.97;;;17.56;58.46
56600;BME280;51832;48.152;11.530;2023-08-07T12:59:11;95552.81;;;17.77;58.46
56600;BME280;51832;48.152;11.530;2023-08-07T13:04:11;95536.66;;;18.04;57.56
56600;BME280;51832;48.152;11.530;2023-08-07T13:09:15;95537.44;;;18.15;57.32
56600;BME280;51832;48.152;11.530;2023-08-07T13:14:15;95539.53;;;18.33;50.44
56600;BME280;51832;48.152;11.530;2023-08-07T13:19:16;95550.44;;;18.52;50.23
56600;BME280;51832;48.152;11.530;2023-08-07T13:24:16;95547.34;;;19.24;50.07
56600;BME280;51832;48.152;11.530;2023-08-07T13:29:17;95559.53;;;18.30;51.50
56600;BME280;51832;48.152;11.530;2023-08-07T13:34:17;95591.97;;;17.92;53.00
56600;BME280;51832;48.152;11.530;2023-08-07T13:39:17;95573.34;;;17.77;55.01
56600;BME280;51832;48.152;11.530;2023-08-07T13:44:18;95582.16;;;18.07;54.55
56600;BME280;51832;48.152;11.530;2023-08-07T13:49:18;95575.50;;;18.25;53.79
56600;BME280;51832;48.152;11.530;2023-08-07T13:54:20;95589.91;;;18.39;52.16
56600;BME280;51832;48.152;11.530;2023-08-07T13:59:21;95575.22;;;18.06;52.58
56600;BME280;51832;48.152;11.530;2023-08-07T14:04:22;95587.50;;;18.53;50.30
56600;BME280;51832;48.152;11.530;2023-08-07T14:09:22;95619.47;;;18.33;51.87
56600;BME280;51832;48.152;11.530;2023-08-07T14:14:23;95623.16;;;18.06;52.90
56600;BME280;51832;48.152;11.530;2023-08-07T14:19:23;95598.41;;;18.21;51.48
56600;BME280;51832;48.152;11.530;2023-08-07T14:24:24;95634.38;;;18.24;51.07
56600;BME280;51832;48.152;11.530;2023-08-07T14:29:24;95638.91;;;18.13;51.09
56600;BME280;51832;48.152;11.530;2023-08-07T14:34:25;95639.41;;;18.00;51.75
56600;BME280;51832;48.152;11.530;2023-08-07T14:39:25;95634.38;;;18.14;52.96
56600;BME280;51832;48.152;11.530;2023-08-07T14:44:26;95659.19;;;17.57;55.26
56600;BME280;51832;48.152;11.530;2023-08-07T14:49:26;95674.53;;;17.39;57.16
56600;BME280;51832;48.152;11.530;2023-08-07T14:54:27;95663.19;;;17.49;58.85
56600;BME280;51832;48.152;11.530;2023-08-07T14:59:27;95674.25;;;17.36;59.23
56600;BME280;51832;48.152;11.530;2023-08-07T15:04:28;95679.44;;;17.58;57.99
56600;BME280;51832;48.152;11.530;2023-08-07T15:09:28;95685.44;;;17.33;56.61
56600;BME280;51832;48.152;11.530;2023-08-07T15:14:29;95701.84;;;17.20;57.37
56600;BME280;51832;48.152;11.530;2023-08-07T15:19:30;95704.25;;;17.21;57.20
56600;BME280;51832;48.152;11.530;2023-08-07T15:24:30;95693.16;;;17.34;57.25
56600;BME280;51832;48.152;11.530;2023-08-07T15:29:30;95702.50;;;17.99;55.80
56600;BME280;51832;48.152;11.530;2023-08-07T15:34:31;95709.22;;;18.32;55.06
56600;BME280;51832;48.152;11.530;2023-08-07T15:39:31;95693.19;;;18.07;56.32
56600;BME280;51832;48.152;11.530;2023-08-07T15:44:32;95695.50;;;17.73;57.49
56600;BME280;51832;48.152;11.530;2023-08-07T15:49:32;95716.16;;;17.61;58.21
56600;BME280;51832;48.152;11.530;2023-08-07T15:54:33;95717.06;;;17.29;59.96
56600;BME280;51832;48.152;11.530;2023-08-07T15:59:33;95725.19;;;17.13;60.75
56600;BME280;51832;48.152;11.530;2023-08-07T16:04:34;95726.44;;;17.00;61.55
56600;BME280;51832;48.152;11.530;2023-08-07T16:09:34;95730.88;;;16.89;62.49
56600;BME280;51832;48.152;11.530;2023-08-07T16:14:35;95730.13;;;16.94;63.50
56600;BME280;51832;48.152;11.530;2023-08-07T16:19:35;95745.81;;;16.63;62.65
56600;BME280;51832;48.152;11.530;2023-08-07T16:24:35;95745.16;;;16.29;67.88
56600;BME280;51832;48.152;11.530;2023-08-07T16:29:36;95750.50;;;16.08;72.17
56600;BME280;51832;48.152;11.530;2023-08-07T16:34:37;95742.41;;;16.19;73.39
56600;BME280;51832;48.152;11.530;2023-08-07T16:39:37;95748.47;;;16.15;75.57
56600;BME280;51832;48.152;11.530;2023-08-07T16:44:39;95751.94;;;16.42;76.26
56600;BME280;51832;48.152;11.530;2023-08-07T16:49:39;95751.53;;;16.55;76.28
56600;BME280;51832;48.152;11.530;2023-08-07T16:54:40;95745.28;;;16.40;77.66
56600;BME280;51832;48.152;11.530;2023-08-07T16:59:41;95750.59;;;16.98;76.12
56600;BME280;51832;48.152;11.530;2023-08-07T17:04:42;95749.00;;;16.65;77.46
56600;BME280;51832;48.152;11.530;2023-08-07T17:09:42;95746.69;;;16.74;77.25
56600;BME280;51832;48.152;11.530;2023-08-07T17:14:43;95746.22;;;16.82;77.08
56600;BME280;51832;48.152;11.530;2023-08-07T17:19:43;95753.13;;;16.83;75.95
56600;BME280;51832;48.152;11.530;2023-08-07T17:24:43;95756.94;;;16.92;76.23
56600;BME280;51832;48.152;11.530;2023-08-07T17:29:44;95753.69;;;16.85;75.19
56600;BME280;51832;48.152;11.530;2023-08-07T17:34:44;95745.94;;;17.16;75.33
56600;BME280;51832;48.152;11.530;2023-08-07T17:39:45;95755.16;;;17.03;73.56
56600;BME280;51832;48.152;11.530;2023-08-07T17:44:45;95742.63;;;16.98;75.05
56600;BME280;51832;48.152;11.530;2023-08-07T17:49:46;95738.03;;;17.26;72.97
56600;BME280;51832;48.152;11.530;2023-08-07T17:54:46;95749.53;;;17.36;72.98
56600;BME280;51832;48.152;11.530;2023-08-07T17:59:50;95735.31;;;17.16;77.95
56600;BME280;51832;48.152;11.530;2023-08-07T18:04:51;95752.03;;;17.11;81.01
56600;BME280;51832;48.152;11.530;2023-08-07T18:09:52;95748.28;;;17.07;82.79
56600;BME280;51832;48.152;11.530;2023-08-07T18:14:52;95748.56;;;17.11;84.43
56600;BME280;51832;48.152;11.530;2023-08-07T18:19:53;95750.84;;;16.97;85.08
56600;BME280;51832;48.152;11.530;2023-08-07T18:24:54;95758.50;;;16.88;86.19
56600;BME280;51832;48.152;11.530;2023-08-07T18:29:54;95757.09;;;16.54;86.26
56600;BME280;51832;48.152;11.530;2023-08-07T18:34:55;95767.09;;;16.68;84.63
56600;BME280;51832;48.152;11.530;2023-08-07T18:39:55;95775.91;;;15.98;82.40
56600;BME280;51832;48.152;11.530;2023-08-07T18:44:56;95773.09;;;15.88;83.24
56600;BME280;51832;48.152;11.530;2023-08-07T18:49:56;95780.41;;;15.98;82.44
56600;BME280;51832;48.152;11.530;2023-08-07T18:54:57;95770.28;;;15.95;82.80
56600;BME280;51832;48.152;11.530;2023-08-07T18:59:57;95779.38;;;15.60;83.36
56600;BME280;51832;48.152;11.530;2023-08-07T19:04:58;95790.06;;;15.66;83.25
56600;BME280;51832;48.152;11.530;2023-08-07T19:09:58;95798.81;;;15.49;83.77
56600;BME280;51832;48.152;11.530;2023-08-07T19:14:59;95799.84;;;15.82;82.80
56600;BME280;51832;48.152;11.530;2023-08-07T19:20:00;95799.44;;;15.73;82.71
56600;BME280;51832;48.152;11.530;2023-08-07T19:25:00;95802.53;;;15.65;83.10
56600;BME280;51832;48.152;11.530;2023-08-07T19:30:02;95807.22;;;15.58;83.53
56600;BME280;51832;48.152;11.530;2023-08-07T19:35:04;95809.59;;;15.59;83.84
56600;BME280;51832;48.152;11.530;2023-08-07T19:40:05;95810.47;;;15.65;83.48
56600;BME280;51832;48.152;11.530;2023-08-07T19:45:07;95802.38;;;15.55;83.73
56600;BME280;51832;48.152;11.530;2023-08-07T19:50:08;95809.28;;;15.39;83.72
56600;BME280;51832;48.152;11.530;2023-08-07T19:55:09;95805.16;;;15.48;83.38
56600;BME280;51832;48.152;11.530;2023-08-07T20:00:10;95810.09;;;15.40;83.73
56600;BME280;51832;48.152;11.530;2023-08-07T20:05:11;95816.56;;;15.49;82.99
56600;BME280;51832;48.152;11.530;2023-08-07T20:10:12;95810.56;;;15.37;83.38
56600;BME280;51832;48.152;11.530;2023-08-07T20:15:13;95819.09;;;15.55;83.13
56600;BME280;51832;48.152;11.530;2023-08-07T20:20:14;95817.56;;;15.26;84.02
56600;BME280;51832;48.152;11.530;2023-08-07T20:25:15;95821.25;;;15.08;85.08
56600;BME280;51832;48.152;11.530;2023-08-07T20:30:15;95817.72;;;15.03;84.64
56600;BME280;51832;48.152;11.530;2023-08-07T20:35:15;95821.19;;;15.03;84.48
56600;BME280;51832;48.152;11.530;2023-08-07T20:40:16;95810.88;;;14.90;84.85
56600;BME280;51832;48.152;11.530;2023-08-07T20:45:16;95807.44;;;14.89;84.69
56600;BME280;51832;48.152;11.530;2023-08-07T20:50:17;95800.69;;;14.82;85.42
56600;BME280;51832;48.152;11.530;2023-08-07T20:55:18;95800.19;;;14.68;84.96
56600;BME280;51832;48.152;11.530;2023-08-07T21:00:19;95816.69;;;14.58;85.66
56600;BME280;51832;48.152;11.530;2023-08-07T21:05:19;95812.84;;;14.66;85.69
56600;BME280;51832;48.152;11.530;2023-08-07T21:10:19;95812.44;;;14.57;85.72
56600;BME280;51832;48.152;11.530;2023-08-07T21:15:20;95801.69;;;14.64;85.57
56600;BME280;51832;48.152;11.530;2023-08-07T21:20:20;95799.34;;;14.39;86.04
56600;BME280;51832;48.152;11.530;2023-08-07T21:25:21;95815.16;;;14.46;85.70
56600;BME280;51832;48.152;11.530;2023-08-07T21:30:22;95795.69;;;14.40;85.93
56600;BME280;51832;48.152;11.530;2023-08-07T21:35:22;95791.78;;;14.43;85.68
56600;BME280;51832;48.152;11.530;2023-08-07T21:40:23;95789.34;;;14.70;84.34
56600;BME280;51832;48.152;11.530;2023-08-07T21:45:24;95776.69;;;14.72;84.42
56600;BME280;51832;48.152;11.530;2023-08-07T21:50:24;95779.41;;;14.60;85.10
56600;BME280;51832;48.152;11.530;2023-08-07T21:55:25;95783.94;;;14.65;84.63
56600;BME280;51832;48.152;11.530;2023-08-07T22:00:25;95774.19;;;14.82;84.25
56600;BME280;51832;48.152;11.530;2023-08-07T22:05:26;95774.50;;;14.69;84.36
56600;BME280;51832;48.152;11.530;2023-08-07T22:10:26;95782.22;;;14.87;84.19
56600;BME280;51832;48.152;11.530;2023-08-07T22:15:27;95776.75;;;14.93;84.24
56600;BME280;51832;48.152;11.530;2023-08-07T22:20:28;95768.25;;;14.75;85.06
56600;BME280;51832;48.152;11.530;2023-08-07T22:25:28;95772.81;;;14.79;84.66
56600;BME280;51832;48.152;11.530;2023-08-07T22:30:29;95775.69;;;14.78;84.37
56600;BME280;51832;48.152;11.530;2023-08-07T22:35:29;95760.53;;;15.07;83.57
56600;BME280;51832;48.152;11.530;2023-08-07T22:40:30;95764.78;;;14.57;85.12
56600;BME280;51832;48.152;11.530;2023-08-07T22:45:30;95758.03;;;14.67;84.95
56600;BME280;51832;48.152;11.530;2023-08-07T22:50:31;95761.44;;;14.96;83.68
56600;BME280;51832;48.152;11.530;2023-08-07T22:55:31;95760.53;;;14.90;83.95
56600;BME280;51832;48.152;11.530;2023-08-07T23:00:32;95761.97;;;14.64;84.47
56600;BME280;51832;48.152;11.530;2023-08-07T23:05:33;95763.50;;;14.77;84.28
56600;BME280;51832;48.152;11.530;2023-08-07T23:10:34;95753.72;;;14.61;84.81
56600;BME280;51832;48.152;11.530;2023-08-07T23:15:34;95755.06;;;14.80;83.79
56600;BME280;51832;48.152;11.530;2023-08-07T23:20:36;95758.13;;;14.72;83.51
56600;BME280;51832;48.152;11.530;2023-08-07T23:25:36;95751.56;;;14.74;83.18
56600;BME280;51832;48.152;11.530;2023-08-07T23:30:37;95748.88;;;14.57;83.59
56600;BME280;51832;48.152;11.530;2023-08-07T23:35:37;95751.38;;;14.64;83.45
56600;BME280;51832;48.152;11.530;2023-08-07T23:40:38;95743.66;;;14.46;83.20
56600;BME280;51832;48.152;11.530;2023-08-07T23:45:41;95727.53;;;14.47;83.23
56600;BME280;51832;48.152;11.530;2023-08-07T23:50:41;95733.94;;;14.51;82.13
56600;BME280;51832;48.152;11.530;2023-08-07T23:55:42;95735.66;;;14.57;81.37
